createdAt,value
2022-08-28T00:00:42.079Z,5.10
2022-08-28T00:03:10.715Z,5.55
2022-08-28T00:05:39.754Z,5.72
2022-08-28T00:08:09.029Z,5.63
2022-08-28T00:10:36.364Z,5.07
2022-08-28T00:13:03.271Z,6.20
2022-08-28T00:15:37.862Z,5.25
2022-08-28T00:18:06.375Z,5.55
2022-08-28T00:20:35.234Z,5.13
2022-08-28T00:23:02.382Z,5.72
2022-08-28T00:25:31.798Z,5.55
2022-08-28T00:28:05.318Z,6.10
2022-08-28T00:30:39.884Z,6.18
2022-08-28T00:33:12.674Z,6.17
2022-08-28T00:35:41.735Z,5.93
2022-08-28T00:38:10.345Z,5.97
2022-08-28T00:40:38.448Z,6.45
2022-08-28T00:43:08.014Z,5.68
2022-08-28T00:45:39.603Z,6.07
2022-08-28T00:48:07.332Z,5.22
2022-08-28T00:51:00.554Z,4.78
2022-08-28T00:53:32.692Z,4.68
2022-08-28T00:56:04.120Z,5.75
2022-08-28T00:58:36.793Z,5.20
2022-08-28T01:01:04.589Z,5.28
2022-08-28T01:03:31.650Z,4.60
2022-08-28T01:05:58.847Z,5.15
2022-08-28T01:08:25.803Z,5.18
2022-08-28T01:11:00.742Z,5.77
2022-08-28T01:13:28.690Z,6.00
2022-08-28T01:15:56.504Z,6.60
2022-08-28T01:18:24.670Z,6.18
2022-08-28T01:21:20.359Z,6.28
2022-08-28T01:24:02.067Z,6.10
2022-08-28T01:26:29.914Z,6.68
2022-08-28T01:28:58.585Z,6.22
2022-08-28T01:31:27.756Z,5.70
2022-08-28T01:33:55.070Z,6.28
2022-08-28T01:36:22.005Z,6.13
2022-08-28T01:38:53.554Z,7.25
2022-08-28T01:41:20.863Z,6.72
2022-08-28T01:43:47.685Z,6.00
2022-08-28T01:46:14.475Z,6.72
2022-08-28T01:48:43.876Z,7.17
2022-08-28T01:51:11.431Z,7.22
2022-08-28T01:53:39.019Z,7.07
2022-08-28T01:56:10.025Z,7.00
2022-08-28T01:58:38.382Z,6.60
2022-08-28T02:01:11.091Z,5.83
2022-08-28T02:03:38.045Z,5.82
2022-08-28T02:06:06.260Z,6.10
2022-08-28T02:08:33.015Z,5.95
2022-08-28T02:10:59.797Z,5.45
2022-08-28T02:13:26.520Z,5.73
2022-08-28T02:15:53.331Z,6.32
2022-08-28T02:18:20.438Z,5.68
2022-08-28T02:20:47.359Z,5.25
2022-08-28T02:23:14.619Z,5.43
2022-08-28T02:25:41.969Z,4.90
2022-08-28T02:28:09.155Z,4.90
2022-08-28T02:30:37.097Z,5.57
2022-08-28T02:33:04.307Z,5.68
2022-08-28T02:35:31.340Z,5.47
2022-08-28T02:37:58.568Z,5.40
2022-08-28T02:40:28.131Z,5.75
2022-08-28T02:42:55.027Z,6.03
2022-08-28T02:45:22.080Z,5.50
2022-08-28T02:47:52.394Z,5.43
2022-08-28T02:50:19.899Z,5.77
2022-08-28T02:52:47.422Z,5.30
2022-08-28T02:55:17.405Z,4.57
2022-08-28T02:57:45.592Z,4.85
2022-08-28T03:00:16.927Z,5.57
2022-08-28T03:02:45.647Z,4.60
2022-08-28T03:05:15.153Z,5.40
2022-08-28T03:07:42.749Z,5.47
2022-08-28T03:10:10.168Z,5.32
2022-08-28T03:12:38.231Z,5.13
2022-08-28T03:15:07.646Z,4.93
2022-08-28T03:17:36.921Z,4.60
2022-08-28T03:20:08.633Z,5.40
2022-08-28T03:23:10.692Z,5.18
2022-08-28T03:25:37.459Z,5.03
2022-08-28T03:28:04.280Z,5.03
2022-08-28T03:30:31.119Z,5.28
2022-08-28T03:32:58.114Z,4.68
2022-08-28T03:35:24.924Z,5.20
2022-08-28T03:37:51.742Z,5.20
2022-08-28T03:40:19.853Z,5.93
2022-08-28T03:42:53.423Z,6.05
2022-08-28T03:45:21.324Z,5.70
2022-08-28T03:47:48.203Z,6.07
2022-08-28T03:50:15.073Z,6.20
2022-08-28T03:52:42.174Z,6.27
2022-08-28T03:55:11.945Z,6.07
2022-08-28T03:57:39.235Z,6.18
2022-08-28T04:00:08.851Z,6.30
2022-08-28T04:02:40.704Z,6.35
2022-08-28T04:05:08.451Z,6.07
2022-08-28T04:07:36.275Z,6.18
2022-08-28T04:10:04.138Z,6.25
2022-08-28T04:12:35.233Z,6.03
2022-08-28T04:15:02.642Z,6.50
2022-08-28T04:17:29.326Z,6.50
2022-08-28T04:19:56.399Z,6.43
2022-08-28T04:22:23.637Z,6.53
2022-08-28T04:24:50.631Z,5.57
2022-08-28T04:27:17.436Z,6.15
2022-08-28T04:29:44.160Z,5.83
2022-08-28T04:32:11.032Z,5.38
2022-08-28T04:34:39.487Z,5.38
2022-08-28T04:37:06.751Z,5.00
2022-08-28T04:39:34.140Z,5.60
2022-08-28T04:42:01.062Z,5.43
2022-08-28T04:44:27.939Z,5.10
2022-08-28T04:46:54.711Z,5.20
2022-08-28T04:49:23.055Z,5.10
2022-08-28T04:51:52.773Z,5.53
2022-08-28T04:54:20.078Z,5.83
2022-08-28T04:56:46.870Z,5.97
2022-08-28T04:59:13.731Z,5.70
2022-08-28T05:01:42.648Z,5.72
2022-08-28T05:04:11.468Z,5.70
2022-08-28T05:06:43.399Z,5.77
2022-08-28T05:09:10.246Z,5.28
2022-08-28T05:11:37.003Z,5.80
2022-08-28T05:14:06.406Z,5.85
2022-08-28T05:16:39.567Z,5.80
2022-08-28T05:19:06.398Z,5.67
2022-08-28T05:21:33.178Z,5.40
2022-08-28T05:24:00.010Z,5.07
2022-08-28T05:26:28.277Z,5.78
2022-08-28T05:28:57.415Z,5.55
2022-08-28T05:31:25.084Z,5.57
2022-08-28T05:33:52.890Z,5.82
2022-08-28T05:36:22.649Z,5.60
2022-08-28T05:38:50.442Z,5.63
2022-08-28T05:41:22.737Z,6.15
2022-08-28T05:43:50.235Z,5.53
2022-08-28T05:46:17.787Z,5.90
2022-08-28T05:48:45.834Z,5.75
2022-08-28T05:51:16.251Z,5.80
2022-08-28T05:53:44.728Z,5.55
2022-08-28T05:56:14.427Z,5.37
2022-08-28T05:58:41.931Z,5.70
2022-08-28T06:01:18.183Z,5.63
2022-08-28T06:03:51.725Z,5.85
2022-08-28T06:06:18.521Z,5.25
2022-08-28T06:08:58.693Z,5.87
2022-08-28T06:11:29.592Z,5.95
2022-08-28T06:14:02.487Z,6.07
2022-08-28T06:16:32.218Z,5.80
2022-08-28T06:19:00.575Z,5.80
2022-08-28T06:21:28.380Z,5.40
2022-08-28T06:23:55.395Z,5.63
2022-08-28T06:26:23.005Z,5.70
2022-08-28T06:28:49.685Z,5.50
2022-08-28T06:31:24.270Z,5.70
2022-08-28T06:33:54.439Z,4.53
2022-08-28T06:36:22.130Z,5.28
2022-08-28T06:38:49.037Z,4.47
2022-08-28T06:41:16.549Z,4.88
2022-08-28T06:43:43.328Z,4.65
2022-08-28T06:46:10.155Z,4.13
2022-08-28T06:48:37.227Z,4.38
2022-08-28T06:51:07.847Z,4.35
2022-08-28T06:53:34.603Z,4.70
2022-08-28T06:56:08.460Z,4.03
2022-08-28T06:58:37.590Z,4.00
2022-08-28T07:01:10.539Z,4.10
2022-08-28T07:03:42.685Z,4.18
2022-08-28T07:06:12.939Z,3.70
2022-08-28T07:08:41.104Z,3.70
2022-08-28T07:11:26.125Z,3.33
2022-08-28T07:13:54.408Z,3.33
2022-08-28T07:16:24.317Z,3.10
2022-08-28T07:18:51.100Z,3.20
2022-08-28T07:21:17.930Z,3.10
2022-08-28T07:23:45.221Z,2.67
2022-08-28T07:26:15.111Z,2.70
2022-08-28T07:28:42.037Z,2.88
2022-08-28T07:31:15.538Z,2.42
2022-08-28T07:33:42.782Z,2.63
2022-08-28T07:36:16.044Z,2.47
2022-08-28T07:38:58.074Z,1.85
2022-08-28T07:41:31.667Z,2.30
2022-08-28T07:44:17.449Z,2.58
2022-08-28T07:46:45.516Z,2.38
2022-08-28T07:49:15.585Z,2.03
2022-08-28T07:51:42.450Z,2.30
2022-08-28T07:54:15.553Z,2.10
2022-08-28T07:56:45.316Z,2.33
2022-08-28T07:59:12.524Z,2.10
2022-08-28T08:01:46.580Z,2.00
2022-08-28T08:04:16.012Z,2.22
2022-08-28T08:06:43.664Z,1.70
2022-08-28T08:09:13.370Z,2.03
2022-08-28T08:11:40.390Z,1.70
2022-08-28T08:14:07.468Z,1.33
2022-08-28T08:16:38.755Z,1.60
2022-08-28T08:19:06.895Z,1.83
2022-08-28T08:21:33.690Z,1.80
2022-08-28T08:24:00.515Z,1.95
2022-08-28T08:26:28.359Z,1.47
2022-08-28T08:28:56.418Z,1.70
2022-08-28T08:31:35.491Z,1.60
2022-08-28T08:34:04.704Z,1.60
2022-08-28T08:36:33.732Z,2.00
2022-08-28T08:39:01.435Z,1.83
2022-08-28T08:41:41.159Z,1.95
2022-08-28T08:44:17.454Z,2.00
2022-08-28T08:47:08.609Z,2.05
2022-08-28T08:49:40.815Z,2.08
2022-08-28T08:52:32.208Z,2.20
2022-08-28T08:55:24.500Z,1.92
2022-08-28T08:58:25.626Z,2.25
2022-08-28T09:01:04.398Z,1.65
2022-08-28T09:03:49.613Z,2.28
2022-08-28T09:06:40.467Z,2.10
2022-08-28T09:09:18.024Z,2.35
2022-08-28T09:11:59.267Z,1.90
2022-08-28T09:14:37.307Z,1.90
2022-08-28T09:17:06.675Z,1.83
2022-08-28T09:19:33.487Z,2.30
2022-08-28T09:22:01.392Z,2.55
2022-08-28T09:24:33.865Z,2.38
2022-08-28T09:27:03.378Z,2.47
2022-08-28T09:29:43.344Z,2.60
2022-08-28T09:32:33.847Z,2.57
2022-08-28T09:35:03.218Z,2.53
2022-08-28T09:37:32.564Z,2.25
2022-08-28T09:40:23.307Z,3.08
2022-08-28T09:43:30.165Z,2.58
2022-08-28T09:46:16.203Z,2.90
2022-08-28T09:48:45.271Z,2.80
2022-08-28T09:51:21.067Z,3.13
2022-08-28T09:53:50.572Z,3.22
2022-08-28T09:56:23.895Z,3.15
2022-08-28T09:58:59.392Z,3.20
2022-08-28T10:01:41.060Z,3.58
2022-08-28T10:04:21.099Z,3.10
2022-08-28T10:07:04.312Z,4.10
2022-08-28T10:09:49.826Z,3.20
2022-08-28T10:12:25.571Z,3.37
2022-08-28T10:15:15.255Z,3.47
2022-08-28T10:18:17.996Z,3.35
2022-08-28T10:20:57.283Z,3.03
2022-08-28T10:23:48.483Z,3.33
2022-08-28T10:26:46.181Z,3.40
2022-08-28T10:29:26.137Z,3.40
2022-08-28T10:31:52.859Z,3.60
2022-08-28T10:34:55.179Z,3.45
2022-08-28T10:37:50.357Z,3.47
2022-08-28T10:40:34.718Z,3.30
2022-08-28T10:43:07.107Z,3.70
2022-08-28T10:45:35.008Z,3.20
2022-08-28T10:48:10.216Z,3.35
2022-08-28T10:50:45.211Z,3.05
2022-08-28T10:53:18.233Z,2.87
2022-08-28T10:55:58.259Z,3.33
2022-08-28T10:58:27.482Z,3.00
2022-08-28T11:01:04.595Z,3.00
2022-08-28T11:03:39.403Z,2.83
2022-08-28T11:06:33.376Z,2.70
2022-08-28T11:09:24.764Z,2.72
2022-08-28T11:12:01.821Z,3.22
2022-08-28T11:14:47.493Z,3.00
2022-08-28T11:17:27.830Z,2.97
2022-08-28T11:20:07.530Z,3.27
2022-08-28T11:22:58.577Z,2.85
2022-08-28T11:25:42.049Z,3.08
2022-08-28T11:28:25.592Z,3.53
2022-08-28T11:30:58.281Z,2.90
2022-08-28T11:33:42.613Z,2.60
2022-08-28T11:36:36.590Z,2.97
2022-08-28T11:39:19.341Z,2.33
2022-08-28T11:42:10.838Z,2.50
2022-08-28T11:44:45.934Z,2.90
2022-08-28T11:47:39.312Z,3.20
2022-08-28T11:50:16.682Z,3.00
2022-08-28T11:53:07.607Z,2.97
2022-08-28T11:56:05.869Z,2.65
2022-08-28T11:58:47.167Z,2.70
2022-08-28T12:01:27.796Z,2.97
2022-08-28T12:04:08.140Z,3.00
2022-08-28T12:07:13.997Z,3.03
2022-08-28T12:09:42.806Z,2.65
2022-08-28T12:12:11.118Z,3.30
2022-08-28T12:14:40.918Z,3.03
2022-08-28T12:17:22.674Z,3.45
2022-08-28T12:19:55.962Z,2.95
2022-08-28T12:22:43.795Z,3.38
2022-08-28T12:25:24.323Z,3.45
2022-08-28T12:27:52.738Z,3.10
2022-08-28T12:30:48.649Z,2.83
2022-08-28T12:33:41.081Z,2.70
2022-08-28T12:36:14.572Z,2.92
2022-08-28T12:38:49.119Z,2.67
2022-08-28T12:41:17.256Z,2.27
2022-08-28T12:43:50.517Z,2.38
2022-08-28T12:46:24.977Z,2.63
2022-08-28T12:48:53.347Z,2.25
2022-08-28T12:51:23.198Z,2.20
2022-08-28T12:53:55.710Z,2.33
2022-08-28T12:56:25.431Z,2.05
2022-08-28T12:58:52.747Z,2.15
2022-08-28T13:01:33.793Z,2.42
2022-08-28T13:04:08.171Z,2.80
2022-08-28T13:06:38.895Z,2.20
2022-08-28T13:09:05.559Z,2.40
2022-08-28T13:11:36.725Z,2.50
2022-08-28T13:14:04.907Z,2.33
2022-08-28T13:16:42.315Z,2.50
2022-08-28T13:19:34.523Z,2.97
2022-08-28T13:22:41.495Z,2.67
2022-08-28T13:25:23.727Z,2.85
2022-08-28T13:28:05.283Z,3.42
2022-08-28T13:30:34.692Z,3.50
2022-08-28T13:33:22.777Z,3.17
2022-08-28T13:35:51.015Z,3.20
2022-08-28T13:38:20.037Z,2.95
2022-08-28T13:40:58.067Z,2.83
2022-08-28T13:43:28.462Z,2.90
2022-08-28T13:45:55.329Z,2.40
2022-08-28T13:48:27.284Z,2.65
2022-08-28T13:51:10.807Z,2.67
2022-08-28T13:53:39.330Z,3.40
2022-08-28T13:56:06.463Z,3.00
2022-08-28T13:58:33.284Z,2.37
2022-08-28T14:01:00.587Z,2.90
2022-08-28T14:03:36.386Z,3.03
2022-08-28T14:06:14.108Z,2.80
2022-08-28T14:08:43.722Z,3.25
2022-08-28T14:11:12.710Z,2.80
2022-08-28T14:13:40.934Z,2.38
2022-08-28T14:16:16.843Z,3.13
2022-08-28T14:18:43.691Z,3.25
2022-08-28T14:21:11.352Z,3.42
2022-08-28T14:23:42.066Z,3.90
2022-08-28T14:26:09.123Z,3.90
2022-08-28T14:28:35.850Z,4.18
2022-08-28T14:31:07.447Z,4.20
2022-08-28T14:33:37.139Z,4.72
2022-08-28T14:36:04.084Z,4.37
2022-08-28T14:38:31.450Z,4.68
2022-08-28T14:40:58.173Z,4.45
2022-08-28T14:43:24.931Z,4.30
2022-08-28T14:45:51.778Z,4.20
2022-08-28T14:48:18.854Z,4.60
2022-08-28T14:50:48.267Z,5.03
2022-08-28T14:53:16.967Z,4.55
2022-08-28T14:55:50.438Z,4.88
2022-08-28T14:58:19.058Z,5.03
2022-08-28T15:00:48.797Z,3.93
2022-08-28T15:03:16.759Z,4.63
2022-08-28T15:05:43.738Z,4.50
2022-08-28T15:08:16.086Z,3.90
2022-08-28T15:10:44.241Z,4.20
2022-08-28T15:13:12.717Z,4.77
2022-08-28T15:15:42.225Z,4.50
2022-08-28T15:18:10.729Z,5.25
2022-08-28T15:20:46.608Z,4.90
2022-08-28T15:23:15.111Z,4.95
2022-08-28T15:25:42.544Z,5.40
2022-08-28T15:28:10.020Z,4.35
2022-08-28T15:30:37.381Z,3.90
2022-08-28T15:33:04.568Z,3.53
2022-08-28T15:35:31.686Z,3.55
2022-08-28T15:37:58.449Z,3.20
2022-08-28T15:40:44.119Z,3.40
2022-08-28T15:43:11.195Z,4.22
2022-08-28T15:45:39.573Z,4.13
2022-08-28T15:48:07.335Z,4.70
2022-08-28T15:50:34.531Z,4.30
2022-08-28T15:53:01.706Z,4.43
2022-08-28T15:55:28.817Z,5.03
2022-08-28T15:57:55.870Z,4.15
2022-08-28T16:00:23.181Z,4.45
2022-08-28T16:02:49.993Z,4.37
2022-08-28T16:05:17.351Z,4.80
2022-08-28T16:07:44.816Z,4.80
2022-08-28T16:10:13.949Z,5.13
2022-08-28T16:12:41.674Z,5.35
2022-08-28T16:15:10.002Z,4.87
2022-08-28T16:17:37.109Z,4.53
2022-08-28T16:20:13.062Z,5.22
2022-08-28T16:22:42.323Z,5.18
2022-08-28T16:25:10.009Z,4.70
2022-08-28T16:27:37.310Z,4.33
2022-08-28T16:30:07.085Z,5.55
2022-08-28T16:32:46.592Z,5.70
2022-08-28T16:35:15.022Z,5.03
2022-08-28T16:37:42.436Z,5.10
2022-08-28T16:40:10.628Z,5.20
2022-08-28T16:42:37.487Z,4.55
2022-08-28T16:45:05.943Z,4.68
2022-08-28T16:47:33.836Z,4.88
2022-08-28T16:50:04.559Z,5.55
2022-08-28T16:52:31.515Z,4.70
2022-08-28T16:54:59.609Z,4.97
2022-08-28T16:57:26.419Z,4.95
2022-08-28T16:59:53.645Z,4.97
2022-08-28T17:02:25.355Z,5.15
2022-08-28T17:04:55.360Z,4.80
2022-08-28T17:07:22.427Z,5.10
2022-08-28T17:09:49.144Z,4.72
2022-08-28T17:12:16.753Z,4.75
2022-08-28T17:14:43.888Z,4.68
2022-08-28T17:17:12.042Z,4.33
2022-08-28T17:19:39.297Z,4.47
2022-08-28T17:22:27.350Z,4.80
2022-08-28T17:24:54.886Z,4.32
2022-08-28T17:27:22.806Z,4.43
2022-08-28T17:29:50.609Z,5.17
2022-08-28T17:32:17.667Z,5.20
2022-08-28T17:34:44.760Z,5.15
2022-08-28T17:37:12.037Z,4.70
2022-08-28T17:39:38.855Z,4.50
2022-08-28T17:42:06.167Z,4.53
2022-08-28T17:44:35.207Z,4.60
2022-08-28T17:47:02.343Z,5.18
2022-08-28T17:49:29.167Z,4.90
2022-08-28T17:51:56.006Z,5.18
2022-08-28T17:54:24.342Z,4.80
2022-08-28T17:56:55.030Z,5.13
2022-08-28T17:59:24.206Z,5.50
2022-08-28T18:01:51.424Z,5.05
2022-08-28T18:04:24.284Z,8.00
2022-08-28T18:06:54.308Z,7.63
2022-08-28T18:09:22.371Z,5.60
2022-08-28T18:11:49.134Z,5.65
2022-08-28T18:14:15.937Z,4.82
2022-08-28T18:16:42.789Z,5.05
2022-08-28T18:19:11.116Z,5.20
2022-08-28T18:21:39.343Z,5.10
2022-08-28T18:24:07.214Z,5.47
2022-08-28T18:26:34.385Z,5.20
2022-08-28T18:29:01.271Z,5.43
2022-08-28T18:31:28.128Z,5.37
2022-08-28T18:33:54.978Z,5.15
2022-08-28T18:36:23.232Z,5.20
2022-08-28T18:38:50.948Z,5.05
2022-08-28T18:41:20.064Z,4.38
2022-08-28T18:43:47.553Z,4.47
2022-08-28T18:46:14.935Z,4.43
2022-08-28T18:48:42.226Z,4.40
2022-08-28T18:51:11.125Z,4.20
2022-08-28T18:53:38.814Z,4.20
2022-08-28T18:56:06.270Z,4.60
2022-08-28T18:58:33.774Z,4.25
2022-08-28T19:01:02.159Z,4.90
2022-08-28T19:03:30.228Z,4.75
2022-08-28T19:05:57.335Z,5.07
2022-08-28T19:08:25.315Z,4.27
2022-08-28T19:10:52.377Z,4.55
2022-08-28T19:13:19.558Z,4.57
2022-08-28T19:15:52.576Z,4.40
2022-08-28T19:18:19.892Z,4.20
2022-08-28T19:20:47.226Z,4.37
2022-08-28T19:23:17.374Z,4.38
2022-08-28T19:25:45.101Z,4.57
2022-08-28T19:28:11.979Z,4.78
2022-08-28T19:30:38.718Z,4.18
2022-08-28T19:33:06.001Z,4.17
2022-08-28T19:35:33.766Z,4.13
2022-08-28T19:38:00.951Z,4.07
2022-08-28T19:40:27.965Z,4.70
2022-08-28T19:42:54.869Z,4.75
2022-08-28T19:45:22.260Z,4.63
2022-08-28T19:47:49.170Z,4.10
2022-08-28T19:50:16.711Z,3.80
2022-08-28T19:52:44.354Z,4.20
2022-08-28T19:55:21.617Z,4.07
2022-08-28T19:57:49.313Z,4.17
2022-08-28T20:00:21.896Z,4.22
2022-08-28T20:02:49.655Z,4.07
2022-08-28T20:05:16.586Z,4.03
2022-08-28T20:07:43.764Z,4.22
2022-08-28T20:10:12.373Z,4.00
2022-08-28T20:12:39.263Z,3.45
2022-08-28T20:15:16.097Z,3.65
2022-08-28T20:17:49.469Z,4.03
2022-08-28T20:20:21.350Z,3.95
2022-08-28T20:22:48.954Z,4.27
2022-08-28T20:25:21.491Z,3.95
2022-08-28T20:27:48.338Z,3.67
2022-08-28T20:30:15.212Z,3.70
2022-08-28T20:32:42.128Z,3.70
2022-08-28T20:35:10.952Z,3.70
2022-08-28T20:37:45.260Z,3.85
2022-08-28T20:40:19.259Z,4.25
2022-08-28T20:42:46.607Z,4.22
2022-08-28T20:45:15.200Z,3.90
2022-08-28T20:47:42.218Z,3.70
2022-08-28T20:50:10.012Z,3.53
2022-08-28T20:52:37.102Z,4.30
2022-08-28T20:55:05.456Z,4.35
2022-08-28T20:57:32.211Z,4.38
2022-08-28T21:00:02.224Z,3.70
2022-08-28T21:02:33.095Z,3.95
2022-08-28T21:05:00.406Z,3.85
2022-08-28T21:07:27.463Z,4.10
2022-08-28T21:10:05.374Z,4.80
2022-08-28T21:12:36.506Z,4.80
2022-08-28T21:15:05.648Z,4.57
2022-08-28T21:17:32.477Z,4.88
2022-08-28T21:20:02.933Z,4.38
2022-08-28T21:22:31.428Z,4.53
2022-08-28T21:24:58.414Z,4.23
2022-08-28T21:27:25.275Z,4.78
2022-08-28T21:29:55.274Z,4.68
2022-08-28T21:32:22.063Z,4.22
2022-08-28T21:34:48.842Z,4.43
2022-08-28T21:37:16.157Z,4.53
2022-08-28T21:39:42.938Z,4.57
2022-08-28T21:42:10.412Z,4.30
2022-08-28T21:44:38.343Z,3.75
2022-08-28T21:47:05.803Z,4.53
2022-08-28T21:49:32.667Z,4.13
2022-08-28T21:52:03.070Z,4.20
2022-08-28T21:54:30.447Z,4.38
2022-08-28T21:56:58.600Z,4.22
2022-08-28T21:59:26.691Z,4.30
2022-08-28T22:01:58.358Z,3.90
2022-08-28T22:04:25.263Z,3.58
2022-08-28T22:06:52.012Z,4.22
2022-08-28T22:09:18.815Z,3.55
2022-08-28T22:11:45.582Z,4.07
2022-08-28T22:14:13.956Z,3.70
2022-08-28T22:16:40.862Z,3.97
2022-08-28T22:19:07.729Z,4.50
2022-08-28T22:21:53.026Z,4.22
2022-08-28T22:24:19.775Z,3.90
2022-08-28T22:26:46.557Z,4.57
2022-08-28T22:29:13.427Z,3.85
2022-08-28T22:31:45.752Z,4.30
2022-08-28T22:34:14.791Z,3.90
2022-08-28T22:36:41.561Z,4.30
2022-08-28T22:39:08.378Z,3.93
2022-08-28T22:41:37.561Z,4.03
2022-08-28T22:44:04.755Z,4.53
2022-08-28T22:46:31.502Z,4.20
2022-08-28T22:48:59.045Z,4.10
2022-08-28T22:51:25.780Z,4.40
2022-08-28T22:53:52.996Z,4.22
2022-08-28T22:56:20.368Z,4.45
2022-08-28T22:58:47.251Z,3.75
2022-08-28T23:01:21.010Z,4.55
2022-08-28T23:03:50.124Z,4.30
2022-08-28T23:06:17.565Z,4.03
2022-08-28T23:08:44.453Z,3.97
2022-08-28T23:11:11.639Z,3.95
2022-08-28T23:13:38.837Z,4.20
2022-08-28T23:16:06.316Z,4.43
2022-08-28T23:18:51.657Z,4.50
2022-08-28T23:21:23.814Z,4.32
2022-08-28T23:23:53.828Z,4.50
2022-08-28T23:26:21.001Z,4.38
2022-08-28T23:28:48.172Z,4.43
2022-08-28T23:31:15.094Z,4.55
2022-08-28T23:33:42.235Z,4.30
2022-08-28T23:36:09.570Z,4.40
2022-08-28T23:38:40.414Z,4.70
2022-08-28T23:41:10.259Z,4.40
2022-08-28T23:43:37.550Z,4.50
2022-08-28T23:46:04.955Z,4.03
2022-08-28T23:48:32.174Z,4.13
2022-08-28T23:50:59.109Z,4.20
2022-08-28T23:53:26.096Z,4.47
2022-08-28T23:55:54.694Z,4.65
2022-08-28T23:58:22.406Z,4.35
